<?xml version="1.0" encoding="utf-8"?>
<gpx xmlns:xsi="http://www.w3.org/2001/XMLSchema-instance" xmlns:xsd="http://www.w3.org/2001/XMLSchema" version="1.1" creator="Shapelink.com" xmlns="http://www.topografix.com/GPX/1/1" xmlns:gpxtpx="http://www.garmin.com/xmlschemas/TrackPointExtension/v1">
  <metadata>
    <name>Övrigt 2.06 km, 2019-01-21</name>
    <desc></desc>
    <author><name>Marian Moron</name></author> 
    <time>2019-01-21T21:03:38Z</time>
  </metadata>
  <trk>
    <name>Övrigt 2.06 km, 2019-01-21</name>
    <trkseg>
      <trkpt lat="51.229556897988" lon="4.457790803984">
        <ele>21.6</ele>
        <time>2019-01-21T21:03:38Z</time>
      </trkpt>
      <trkpt lat="51.229518927981" lon="4.457813518933">
        <ele>19.6</ele>
        <time>2019-01-21T21:03:41Z</time>
      </trkpt>
      <trkpt lat="51.229347853402" lon="4.457976965983">
        <ele>7.8</ele>
        <time>2019-01-21T21:04:12Z</time>
      </trkpt>
      <trkpt lat="51.229305357169" lon="4.457981827485">
        <ele>7.4</ele>
        <time>2019-01-21T21:04:25Z</time>
      </trkpt>
      <trkpt lat="51.228841083728" lon="4.458079560439">
        <ele>11.8</ele>
        <time>2019-01-21T21:04:47Z</time>
      </trkpt>
      <trkpt lat="51.228501281502" lon="4.458316768209">
        <ele>8</ele>
        <time>2019-01-21T21:05:12Z</time>
      </trkpt>
      <trkpt lat="51.228052682214" lon="4.458488680978">
        <ele>4</ele>
        <time>2019-01-21T21:05:44Z</time>
      </trkpt>
      <trkpt lat="51.227744479751" lon="4.458661348118">
        <ele>3</ele>
        <time>2019-01-21T21:06:05Z</time>
      </trkpt>
      <trkpt lat="51.227308118037" lon="4.458889587255">
        <ele>0</ele>
        <time>2019-01-21T21:06:25Z</time>
      </trkpt>
      <trkpt lat="51.22716537428" lon="4.458933759868">
        <ele>0</ele>
        <time>2019-01-21T21:06:36Z</time>
      </trkpt>
      <trkpt lat="51.226730269851" lon="4.459141798626">
        <ele>0</ele>
        <time>2019-01-21T21:06:54Z</time>
      </trkpt>
      <trkpt lat="51.226617365658" lon="4.459324440227">
        <ele>0</ele>
        <time>2019-01-21T21:07:35Z</time>
      </trkpt>
      <trkpt lat="51.226314527611" lon="4.459605652972">
        <ele>0</ele>
        <time>2019-01-21T21:08:04Z</time>
      </trkpt>
      <trkpt lat="51.226399855353" lon="4.460036985546">
        <ele>2.2</ele>
        <time>2019-01-21T21:08:40Z</time>
      </trkpt>
      <trkpt lat="51.226194079708" lon="4.459810171332">
        <ele>1.2</ele>
        <time>2019-01-21T21:08:57Z</time>
      </trkpt>
      <trkpt lat="51.225735338321" lon="4.459998764082">
        <ele>0.6</ele>
        <time>2019-01-21T21:09:22Z</time>
      </trkpt>
      <trkpt lat="51.225638946471" lon="4.460034890071">
        <ele>5</ele>
        <time>2019-01-21T21:09:29Z</time>
      </trkpt>
      <trkpt lat="51.225220689661" lon="4.460345355647">
        <ele>10.4</ele>
        <time>2019-01-21T21:09:51Z</time>
      </trkpt>
      <trkpt lat="51.224797655168" lon="4.460633106274">
        <ele>10.4</ele>
        <time>2019-01-21T21:10:11Z</time>
      </trkpt>
      <trkpt lat="51.224640913638" lon="4.460752129254">
        <ele>10.6</ele>
        <time>2019-01-21T21:10:40Z</time>
      </trkpt>
      <trkpt lat="51.224505378315" lon="4.460897806676">
        <ele>9.4</ele>
        <time>2019-01-21T21:10:53Z</time>
      </trkpt>
      <trkpt lat="51.224486183764" lon="4.460920270168">
        <ele>8.6</ele>
        <time>2019-01-21T21:10:55Z</time>
      </trkpt>
      <trkpt lat="51.224373866304" lon="4.46099973058">
        <ele>7.8</ele>
        <time>2019-01-21T21:11:07Z</time>
      </trkpt>
      <trkpt lat="51.223947814327" lon="4.461250600847">
        <ele>7.4</ele>
        <time>2019-01-21T21:11:30Z</time>
      </trkpt>
      <trkpt lat="51.223530311888" lon="4.461530556307">
        <ele>6.8</ele>
        <time>2019-01-21T21:11:48Z</time>
      </trkpt>
      <trkpt lat="51.223534502838" lon="4.461792155406">
        <ele>9.4</ele>
        <time>2019-01-21T21:12:09Z</time>
      </trkpt>
      <trkpt lat="51.223730974574" lon="4.462182751946">
        <ele>5</ele>
        <time>2019-01-21T21:12:29Z</time>
      </trkpt>
      <trkpt lat="51.223760897957" lon="4.462369584497">
        <ele>2</ele>
        <time>2019-01-21T21:12:37Z</time>
      </trkpt>
      <trkpt lat="51.223759473034" lon="4.462609223018">
        <ele>0</ele>
        <time>2019-01-21T21:12:46Z</time>
      </trkpt>
      <trkpt lat="51.223743463605" lon="4.462657586581">
        <ele>0</ele>
        <time>2019-01-21T21:12:51Z</time>
      </trkpt>
      <trkpt lat="51.223770537142" lon="4.462907870115">
        <ele>16.4</ele>
        <time>2019-01-21T21:13:37Z</time>
      </trkpt>
      <trkpt lat="51.223846644794" lon="4.463044327447">
        <ele>17</ele>
        <time>2019-01-21T21:13:47Z</time>
      </trkpt>
      <trkpt lat="51.224205976847" lon="4.463494938391">
        <ele>25.6</ele>
        <time>2019-01-21T21:14:20Z</time>
      </trkpt>
      <trkpt lat="51.224615516481" lon="4.463859383403">
        <ele>20.8</ele>
        <time>2019-01-21T21:14:39Z</time>
      </trkpt>
      <trkpt lat="51.225013069998" lon="4.464116204819">
        <ele>15</ele>
        <time>2019-01-21T21:15:08Z</time>
      </trkpt>
      <trkpt lat="51.225278692409" lon="4.463703647701">
        <ele>4</ele>
        <time>2019-01-21T21:15:33Z</time>
      </trkpt>
      <trkpt lat="51.225475331783" lon="4.463537350805">
        <ele>3.6</ele>
        <time>2019-01-21T21:15:48Z</time>
      </trkpt>
      <trkpt lat="51.225605586509" lon="4.463444646991">
        <ele>4</ele>
        <time>2019-01-21T21:16:01Z</time>
      </trkpt>
      <trkpt lat="51.225828209773" lon="4.463435259263">
        <ele>15</ele>
        <time>2019-01-21T21:16:22Z</time>
      </trkpt>
      <trkpt lat="51.226242778547" lon="4.463255718965">
        <ele>7.4</ele>
        <time>2019-01-21T21:17:29Z</time>
      </trkpt>
      <trkpt lat="51.226451906952" lon="4.463101324367">
        <ele>13.6</ele>
        <time>2019-01-21T21:18:21Z</time>
      </trkpt>
      <trkpt lat="51.226602026781" lon="4.46308095635">
        <ele>18.8</ele>
        <time>2019-01-21T21:18:42Z</time>
      </trkpt>
      <trkpt lat="51.226734125525" lon="4.463068048224">
        <ele>14.4</ele>
        <time>2019-01-21T21:18:56Z</time>
      </trkpt>
      <trkpt lat="51.226908133769" lon="4.463170894137">
        <ele>11.4</ele>
        <time>2019-01-21T21:19:18Z</time>
      </trkpt>
      <trkpt lat="51.226972925856" lon="4.463100569996">
        <ele>9.2</ele>
        <time>2019-01-21T21:19:33Z</time>
      </trkpt>
      <trkpt lat="51.227020786505" lon="4.463116747063">
        <ele>8.2</ele>
        <time>2019-01-21T21:19:38Z</time>
      </trkpt>
      <trkpt lat="51.227054230286" lon="4.463199224959">
        <ele>6.8</ele>
        <time>2019-01-21T21:19:57Z</time>
      </trkpt>
      <trkpt lat="51.227054817019" lon="4.463186400652">
        <ele>7</ele>
        <time>2019-01-21T21:20:02Z</time>
      </trkpt>
      <trkpt lat="51.227019864496" lon="4.462874174877">
        <ele>6.4</ele>
        <time>2019-01-21T21:20:20Z</time>
      </trkpt>
      <trkpt lat="51.226996646633" lon="4.462650545785">
        <ele>2.6</ele>
        <time>2019-01-21T21:20:38Z</time>
      </trkpt>
      <trkpt lat="51.226985833982" lon="4.462406548676">
        <ele>0</ele>
        <time>2019-01-21T21:21:00Z</time>
      </trkpt>
      <trkpt lat="51.226971668571" lon="4.462361034959">
        <ele>0</ele>
        <time>2019-01-21T21:21:13Z</time>
      </trkpt>
      <trkpt lat="51.226955491504" lon="4.46227797033">
        <ele>0</ele>
        <time>2019-01-21T21:21:19Z</time>
      </trkpt>
      <trkpt lat="51.226915258384" lon="4.462044450596">
        <ele>0</ele>
        <time>2019-01-21T21:21:32Z</time>
      </trkpt>
      <trkpt lat="51.226906876484" lon="4.461977814491">
        <ele>0</ele>
        <time>2019-01-21T21:21:37Z</time>
      </trkpt>
      <trkpt lat="51.226881646965" lon="4.461885781229">
        <ele>0</ele>
        <time>2019-01-21T21:21:43Z</time>
      </trkpt>
      <trkpt lat="51.226887681933" lon="4.461732811554">
        <ele>0</ele>
        <time>2019-01-21T21:21:54Z</time>
      </trkpt>
      <trkpt lat="51.226871253409" lon="4.461651339486">
        <ele>0</ele>
        <time>2019-01-21T21:21:58Z</time>
      </trkpt>
      <trkpt lat="51.227209295436" lon="4.461287900302">
        <ele>0</ele>
        <time>2019-01-21T21:22:32Z</time>
      </trkpt>
      <trkpt lat="51.227351787736" lon="4.461109868746">
        <ele>6.6</ele>
        <time>2019-01-21T21:22:49Z</time>
      </trkpt>
      <trkpt lat="51.227404677525" lon="4.461049016152">
        <ele>8</ele>
        <time>2019-01-21T21:23:04Z</time>
      </trkpt>
      <trkpt lat="51.227488412706" lon="4.46096871755">
        <ele>15.8</ele>
        <time>2019-01-21T21:23:28Z</time>
      </trkpt>
      <trkpt lat="51.227494280036" lon="4.460786578863">
        <ele>15.2</ele>
        <time>2019-01-21T21:23:37Z</time>
      </trkpt>
      <trkpt lat="51.227507858714" lon="4.460753470358">
        <ele>13.4</ele>
        <time>2019-01-21T21:23:41Z</time>
      </trkpt>
      <trkpt lat="51.227910692828" lon="4.460430515751">
        <ele>8.4</ele>
        <time>2019-01-21T21:24:05Z</time>
      </trkpt>
      <trkpt lat="51.22801278437" lon="4.460421044204">
        <ele>11.6</ele>
        <time>2019-01-21T21:24:11Z</time>
      </trkpt>
      <trkpt lat="51.228291314907" lon="4.459906311725">
        <ele>2.4</ele>
        <time>2019-01-21T21:24:30Z</time>
      </trkpt>
      <trkpt lat="51.228476219621" lon="4.45926719185">
        <ele>6.8</ele>
        <time>2019-01-21T21:24:48Z</time>
      </trkpt>
      <trkpt lat="51.22853665312" lon="4.458933424592">
        <ele>4.6</ele>
        <time>2019-01-21T21:24:57Z</time>
      </trkpt>
      <trkpt lat="51.228481248761" lon="4.458427241651">
        <ele>5.4</ele>
        <time>2019-01-21T21:25:15Z</time>
      </trkpt>
      <trkpt lat="51.228585603416" lon="4.458186681121">
        <ele>4.2</ele>
        <time>2019-01-21T21:25:26Z</time>
      </trkpt>
      <trkpt lat="51.229014086144" lon="4.458043266812">
        <ele>12.2</ele>
        <time>2019-01-21T21:25:58Z</time>
      </trkpt>
      <trkpt lat="51.229109555985" lon="4.457978307087">
        <ele>13.6</ele>
        <time>2019-01-21T21:26:06Z</time>
      </trkpt>
      <trkpt lat="51.229340309692" lon="4.457929859705">
        <ele>14.6</ele>
        <time>2019-01-21T21:26:23Z</time>
      </trkpt>
      <trkpt lat="51.229575589625" lon="4.457860876668">
        <ele>23.6</ele>
        <time>2019-01-21T21:26:39Z</time>
      </trkpt>
      <trkpt lat="51.22971850102" lon="4.457777979677">
        <ele>11.2</ele>
        <time>2019-01-21T21:26:48Z</time>
      </trkpt>
      <trkpt lat="51.229801733287" lon="4.457606402184">
        <ele>6.2</ele>
        <time>2019-01-21T21:27:03Z</time>
      </trkpt>
      <trkpt lat="51.229843894244" lon="4.457794240563">
        <ele>0</ele>
        <time>2019-01-21T21:27:14Z</time>
      </trkpt>
      <trkpt lat="51.229749681688" lon="4.457917873588">
        <ele>4.8</ele>
        <time>2019-01-21T21:27:34Z</time>
      </trkpt>
      <trkpt lat="51.229619007867" lon="4.45795039536">
        <ele>16.6</ele>
        <time>2019-01-21T21:28:09Z</time>
      </trkpt>
    </trkseg>
  </trk>
</gpx>